sensor_id;sensor_type;location;lat;lon;timestamp;P1;durP1;ratioP1;P2;durP2;ratioP2
44732;SDS011;30460;50.836;4.390;2022-09-29T05:18:02;7.37;;;4.57;;
44732;SDS011;30460;50.836;4.390;2022-09-29T05:20:28;4.93;;;4.00;;
44732;SDS011;30460;50.836;4.390;2022-09-29T05:22:56;8.67;;;4.23;;
44732;SDS011;30460;50.836;4.390;2022-09-29T05:25:22;7.07;;;4.60;;
44732;SDS011;30460;50.836;4.390;2022-09-29T05:27:48;7.10;;;4.30;;
44732;SDS011;30460;50.836;4.390;2022-09-29T05:30:14;4.67;;;3.43;;
44732;SDS011;30460;50.836;4.390;2022-09-29T05:32:41;6.90;;;4.17;;
44732;SDS011;30460;50.836;4.390;2022-09-29T05:35:08;5.50;;;3.57;;
44732;SDS011;30460;50.836;4.390;2022-09-29T05:37:34;4.87;;;3.77;;
44732;SDS011;30460;50.836;4.390;2022-09-29T05:40:00;6.80;;;4.83;;
44732;SDS011;30460;50.836;4.390;2022-09-29T05:42:26;5.57;;;4.43;;
44732;SDS011;30460;50.836;4.390;2022-09-29T05:44:52;8.43;;;5.00;;
44732;SDS011;30460;50.836;4.390;2022-09-29T05:47:18;7.97;;;4.90;;
44732;SDS011;30460;50.836;4.390;2022-09-29T05:49:44;7.47;;;4.43;;
44732;SDS011;30460;50.836;4.390;2022-09-29T05:52:10;8.80;;;5.00;;
44732;SDS011;30460;50.836;4.390;2022-09-29T05:54:36;4.93;;;4.43;;
44732;SDS011;30460;50.836;4.390;2022-09-29T05:57:02;7.47;;;4.33;;
44732;SDS011;30460;50.836;4.390;2022-09-29T05:59:28;6.90;;;4.90;;
44732;SDS011;30460;50.836;4.390;2022-09-29T06:01:54;8.83;;;4.60;;
44732;SDS011;30460;50.836;4.390;2022-09-29T06:04:20;5.93;;;4.70;;
44732;SDS011;30460;50.836;4.390;2022-09-29T06:06:46;8.00;;;5.27;;
44732;SDS011;30460;50.836;4.390;2022-09-29T06:09:12;6.40;;;4.60;;
44732;SDS011;30460;50.836;4.390;2022-09-29T06:11:38;8.00;;;4.50;;
44732;SDS011;30460;50.836;4.390;2022-09-29T06:14:04;8.73;;;4.53;;
44732;SDS011;30460;50.836;4.390;2022-09-29T06:16:30;6.47;;;4.60;;
44732;SDS011;30460;50.836;4.390;2022-09-29T06:18:57;9.60;;;4.80;;
44732;SDS011;30460;50.836;4.390;2022-09-29T06:21:24;7.23;;;4.43;;
44732;SDS011;30460;50.836;4.390;2022-09-29T06:23:51;8.77;;;4.77;;
44732;SDS011;30460;50.836;4.390;2022-09-29T06:26:18;8.00;;;4.70;;
44732;SDS011;30460;50.836;4.390;2022-09-29T06:28:47;7.93;;;4.80;;
44732;SDS011;30460;50.836;4.390;2022-09-29T06:31:15;8.03;;;5.47;;
44732;SDS011;30460;50.836;4.390;2022-09-29T06:33:41;11.17;;;8.03;;
44732;SDS011;30460;50.836;4.390;2022-09-29T06:36:10;9.37;;;6.40;;
44732;SDS011;30460;50.836;4.390;2022-09-29T06:38:56;12.97;;;6.33;;
44732;SDS011;30460;50.836;4.390;2022-09-29T06:41:22;10.23;;;6.27;;
44732;SDS011;30460;50.836;4.390;2022-09-29T06:43:48;9.53;;;6.13;;
44732;SDS011;30460;50.836;4.390;2022-09-29T06:46:14;10.93;;;5.80;;
44732;SDS011;30460;50.836;4.390;2022-09-29T06:48:40;7.33;;;5.37;;
44732;SDS011;30460;50.836;4.390;2022-09-29T06:51:06;10.50;;;5.00;;
44732;SDS011;30460;50.836;4.390;2022-09-29T06:53:32;8.47;;;5.10;;
44732;SDS011;30460;50.836;4.390;2022-09-29T06:55:58;7.80;;;5.07;;
44732;SDS011;30460;50.836;4.390;2022-09-29T06:58:25;7.07;;;4.50;;
44732;SDS011;30460;50.836;4.390;2022-09-29T07:00:52;8.90;;;4.90;;
44732;SDS011;30460;50.836;4.390;2022-09-29T07:03:18;8.30;;;5.40;;
44732;SDS011;30460;50.836;4.390;2022-09-29T07:05:44;12.67;;;5.20;;
44732;SDS011;30460;50.836;4.390;2022-09-29T07:08:11;8.30;;;5.23;;
44732;SDS011;30460;50.836;4.390;2022-09-29T07:10:38;8.37;;;4.83;;
44732;SDS011;30460;50.836;4.390;2022-09-29T07:13:04;9.37;;;4.70;;
44732;SDS011;30460;50.836;4.390;2022-09-29T07:15:31;5.37;;;4.57;;
44732;SDS011;30460;50.836;4.390;2022-09-29T07:17:58;8.77;;;4.83;;
44732;SDS011;30460;50.836;4.390;2022-09-29T07:20:25;10.10;;;5.20;;
44732;SDS011;30460;50.836;4.390;2022-09-29T07:22:51;5.93;;;4.60;;
44732;SDS011;30460;50.836;4.390;2022-09-29T07:25:18;13.30;;;5.07;;
44732;SDS011;30460;50.836;4.390;2022-09-29T07:27:44;9.90;;;5.37;;
44732;SDS011;30460;50.836;4.390;2022-09-29T07:30:10;10.40;;;5.10;;
44732;SDS011;30460;50.836;4.390;2022-09-29T07:32:36;6.77;;;4.90;;
44732;SDS011;30460;50.836;4.390;2022-09-29T07:35:03;5.70;;;4.03;;
44732;SDS011;30460;50.836;4.390;2022-09-29T07:37:30;10.60;;;5.97;;
44732;SDS011;30460;50.836;4.390;2022-09-29T07:39:56;6.47;;;4.27;;
44732;SDS011;30460;50.836;4.390;2022-09-29T07:42:22;7.60;;;4.53;;
44732;SDS011;30460;50.836;4.390;2022-09-29T07:44:48;6.50;;;4.97;;
44732;SDS011;30460;50.836;4.390;2022-09-29T07:47:14;7.10;;;4.90;;
44732;SDS011;30460;50.836;4.390;2022-09-29T07:49:40;9.37;;;6.23;;
44732;SDS011;30460;50.836;4.390;2022-09-29T07:52:06;8.63;;;5.37;;
44732;SDS011;30460;50.836;4.390;2022-09-29T07:54:32;10.37;;;5.93;;
44732;SDS011;30460;50.836;4.390;2022-09-29T07:56:58;7.20;;;5.23;;
44732;SDS011;30460;50.836;4.390;2022-09-29T07:59:26;8.27;;;4.53;;
44732;SDS011;30460;50.836;4.390;2022-09-29T08:01:52;8.47;;;5.67;;
44732;SDS011;30460;50.836;4.390;2022-09-29T08:04:18;9.27;;;5.03;;
44732;SDS011;30460;50.836;4.390;2022-09-29T08:06:44;11.10;;;5.90;;
44732;SDS011;30460;50.836;4.390;2022-09-29T08:09:11;12.37;;;6.50;;
44732;SDS011;30460;50.836;4.390;2022-09-29T08:11:38;7.37;;;5.10;;
44732;SDS011;30460;50.836;4.390;2022-09-29T08:14:04;10.60;;;6.20;;
44732;SDS011;30460;50.836;4.390;2022-09-29T08:16:30;6.17;;;4.33;;
44732;SDS011;30460;50.836;4.390;2022-09-29T08:18:57;9.03;;;5.37;;
44732;SDS011;30460;50.836;4.390;2022-09-29T08:21:23;5.90;;;4.40;;
44732;SDS011;30460;50.836;4.390;2022-09-29T08:23:49;11.40;;;5.90;;
44732;SDS011;30460;50.836;4.390;2022-09-29T08:26:17;7.77;;;5.00;;
44732;SDS011;30460;50.836;4.390;2022-09-29T08:28:43;10.63;;;5.97;;
44732;SDS011;30460;50.836;4.390;2022-09-29T08:31:19;9.20;;;6.00;;
44732;SDS011;30460;50.836;4.390;2022-09-29T08:33:47;11.67;;;6.07;;
44732;SDS011;30460;50.836;4.390;2022-09-29T08:36:17;9.90;;;5.87;;
44732;SDS011;30460;50.836;4.390;2022-09-29T08:38:44;5.67;;;4.80;;
44732;SDS011;30460;50.836;4.390;2022-09-29T08:41:16;9.60;;;4.53;;
44732;SDS011;30460;50.836;4.390;2022-09-29T08:43:46;8.17;;;5.73;;
44732;SDS011;30460;50.836;4.390;2022-09-29T08:48:48;9.50;;;5.53;;
44732;SDS011;30460;50.836;4.390;2022-09-29T08:51:25;9.97;;;6.10;;
44732;SDS011;30460;50.836;4.390;2022-09-29T08:53:54;11.33;;;6.30;;
44732;SDS011;30460;50.836;4.390;2022-09-29T08:56:22;6.67;;;4.30;;
44732;SDS011;30460;50.836;4.390;2022-09-29T08:58:50;8.43;;;5.53;;
44732;SDS011;30460;50.836;4.390;2022-09-29T09:03:50;7.40;;;4.90;;
44732;SDS011;30460;50.836;4.390;2022-09-29T09:06:25;8.67;;;5.33;;
44732;SDS011;30460;50.836;4.390;2022-09-29T09:13:51;7.80;;;5.30;;
44732;SDS011;30460;50.836;4.390;2022-09-29T09:16:31;7.80;;;5.53;;
44732;SDS011;30460;50.836;4.390;2022-09-29T09:19:24;7.67;;;4.80;;
44732;SDS011;30460;50.836;4.390;2022-09-29T09:21:52;8.10;;;5.70;;
44732;SDS011;30460;50.836;4.390;2022-09-29T09:24:21;9.77;;;5.37;;
44732;SDS011;30460;50.836;4.390;2022-09-29T09:26:52;6.67;;;4.60;;
44732;SDS011;30460;50.836;4.390;2022-09-29T09:29:21;8.57;;;5.30;;
44732;SDS011;30460;50.836;4.390;2022-09-29T09:34:37;6.30;;;4.53;;
44732;SDS011;30460;50.836;4.390;2022-09-29T09:42:11;5.97;;;4.23;;
44732;SDS011;30460;50.836;4.390;2022-09-29T09:44:39;6.73;;;4.43;;
44732;SDS011;30460;50.836;4.390;2022-09-29T09:47:17;8.43;;;4.90;;
44732;SDS011;30460;50.836;4.390;2022-09-29T09:49:47;7.47;;;4.80;;
44732;SDS011;30460;50.836;4.390;2022-09-29T09:52:30;9.60;;;5.57;;
44732;SDS011;30460;50.836;4.390;2022-09-29T09:55:20;9.23;;;4.70;;
44732;SDS011;30460;50.836;4.390;2022-09-29T10:02:46;7.77;;;4.33;;
44732;SDS011;30460;50.836;4.390;2022-09-29T10:05:14;5.63;;;3.80;;
44732;SDS011;30460;50.836;4.390;2022-09-29T10:07:41;5.40;;;3.67;;
44732;SDS011;30460;50.836;4.390;2022-09-29T10:10:18;5.37;;;3.70;;
44732;SDS011;30460;50.836;4.390;2022-09-29T10:12:44;5.13;;;4.27;;
44732;SDS011;30460;50.836;4.390;2022-09-29T10:17:49;6.97;;;4.40;;
44732;SDS011;30460;50.836;4.390;2022-09-29T10:20:27;7.53;;;3.80;;
44732;SDS011;30460;50.836;4.390;2022-09-29T10:22:53;6.57;;;3.90;;
44732;SDS011;30460;50.836;4.390;2022-09-29T10:25:19;5.37;;;3.43;;
44732;SDS011;30460;50.836;4.390;2022-09-29T10:27:46;4.80;;;3.80;;
44732;SDS011;30460;50.836;4.390;2022-09-29T10:32:50;7.17;;;3.97;;
44732;SDS011;30460;50.836;4.390;2022-09-29T10:35:21;6.60;;;3.70;;
44732;SDS011;30460;50.836;4.390;2022-09-29T10:37:51;3.87;;;3.53;;
44732;SDS011;30460;50.836;4.390;2022-09-29T10:40:23;5.13;;;3.50;;
44732;SDS011;30460;50.836;4.390;2022-09-29T10:42:49;5.60;;;3.67;;
44732;SDS011;30460;50.836;4.390;2022-09-29T10:45:18;5.57;;;3.93;;
44732;SDS011;30460;50.836;4.390;2022-09-29T10:47:48;6.20;;;3.97;;
44732;SDS011;30460;50.836;4.390;2022-09-29T10:50:31;9.17;;;3.43;;
44732;SDS011;30460;50.836;4.390;2022-09-29T10:52:59;3.70;;;3.30;;
44732;SDS011;30460;50.836;4.390;2022-09-29T10:55:27;4.03;;;2.73;;
44732;SDS011;30460;50.836;4.390;2022-09-29T10:57:56;4.70;;;3.60;;
44732;SDS011;30460;50.836;4.390;2022-09-29T11:02:51;4.00;;;2.77;;
44732;SDS011;30460;50.836;4.390;2022-09-29T11:05:20;3.20;;;2.60;;
44732;SDS011;30460;50.836;4.390;2022-09-29T11:07:48;5.73;;;3.13;;
44732;SDS011;30460;50.836;4.390;2022-09-29T11:10:31;4.97;;;3.13;;
44732;SDS011;30460;50.836;4.390;2022-09-29T11:12:57;4.73;;;2.73;;
44732;SDS011;30460;50.836;4.390;2022-09-29T11:15:28;5.63;;;3.17;;
44732;SDS011;30460;50.836;4.390;2022-09-29T11:18:04;4.07;;;2.20;;
44732;SDS011;30460;50.836;4.390;2022-09-29T11:20:42;3.87;;;2.90;;
44732;SDS011;30460;50.836;4.390;2022-09-29T11:25:44;3.30;;;2.70;;
44732;SDS011;30460;50.836;4.390;2022-09-29T11:31:05;2.60;;;1.80;;
44732;SDS011;30460;50.836;4.390;2022-09-29T11:43:50;5.50;;;2.53;;
44732;SDS011;30460;50.836;4.390;2022-09-29T11:46:26;4.30;;;2.40;;
44732;SDS011;30460;50.836;4.390;2022-09-29T11:54:02;3.53;;;2.37;;
44732;SDS011;30460;50.836;4.390;2022-09-29T11:56:38;2.87;;;2.10;;
44732;SDS011;30460;50.836;4.390;2022-09-29T11:59:19;2.67;;;2.00;;
44732;SDS011;30460;50.836;4.390;2022-09-29T12:15:25;4.33;;;2.20;;
44732;SDS011;30460;50.836;4.390;2022-09-29T12:17:56;3.50;;;2.37;;
44732;SDS011;30460;50.836;4.390;2022-09-29T12:20:32;3.33;;;2.33;;
44732;SDS011;30460;50.836;4.390;2022-09-29T12:23:00;2.50;;;2.10;;
44732;SDS011;30460;50.836;4.390;2022-09-29T12:25:29;2.40;;;2.20;;
44732;SDS011;30460;50.836;4.390;2022-09-29T12:28:01;5.70;;;1.93;;
44732;SDS011;30460;50.836;4.390;2022-09-29T12:30:36;5.43;;;1.70;;
44732;SDS011;30460;50.836;4.390;2022-09-29T12:33:09;2.10;;;1.70;;
44732;SDS011;30460;50.836;4.390;2022-09-29T12:40:41;4.43;;;1.77;;
44732;SDS011;30460;50.836;4.390;2022-09-29T12:43:16;2.30;;;2.00;;
44732;SDS011;30460;50.836;4.390;2022-09-29T12:45:53;5.13;;;2.00;;
44732;SDS011;30460;50.836;4.390;2022-09-29T12:48:32;2.67;;;2.00;;
44732;SDS011;30460;50.836;4.390;2022-09-29T12:56:23;1.70;;;1.60;;
44732;SDS011;30460;50.836;4.390;2022-09-29T12:58:52;5.60;;;1.90;;
44732;SDS011;30460;50.836;4.390;2022-09-29T13:06:27;2.17;;;1.97;;
44732;SDS011;30460;50.836;4.390;2022-09-29T13:21:53;5.73;;;2.27;;
44732;SDS011;30460;50.836;4.390;2022-09-29T13:29:33;3.00;;;1.90;;
44732;SDS011;30460;50.836;4.390;2022-09-29T13:32:02;2.57;;;1.67;;
44732;SDS011;30460;50.836;4.390;2022-09-29T13:34:35;3.60;;;1.77;;
44732;SDS011;30460;50.836;4.390;2022-09-29T13:37:18;2.67;;;2.00;;
44732;SDS011;30460;50.836;4.390;2022-09-29T13:39:52;1.90;;;1.70;;
44732;SDS011;30460;50.836;4.390;2022-09-29T13:42:25;4.67;;;1.97;;
44732;SDS011;30460;50.836;4.390;2022-09-29T13:47:35;1.93;;;1.73;;
44732;SDS011;30460;50.836;4.390;2022-09-29T13:52:54;2.70;;;1.67;;
44732;SDS011;30460;50.836;4.390;2022-09-29T13:55:53;2.43;;;1.50;;
44732;SDS011;30460;50.836;4.390;2022-09-29T13:58:23;3.97;;;1.70;;
44732;SDS011;30460;50.836;4.390;2022-09-29T14:00:49;2.27;;;1.80;;
44732;SDS011;30460;50.836;4.390;2022-09-29T14:09:06;2.83;;;1.60;;
44732;SDS011;30460;50.836;4.390;2022-09-29T14:11:48;3.03;;;1.80;;
44732;SDS011;30460;50.836;4.390;2022-09-29T14:14:31;2.20;;;1.80;;
44732;SDS011;30460;50.836;4.390;2022-09-29T14:17:19;2.27;;;1.63;;
44732;SDS011;30460;50.836;4.390;2022-09-29T14:19:50;3.73;;;1.73;;
44732;SDS011;30460;50.836;4.390;2022-09-29T14:27:45;3.53;;;1.70;;
44732;SDS011;30460;50.836;4.390;2022-09-29T14:30:17;1.70;;;1.20;;
44732;SDS011;30460;50.836;4.390;2022-09-29T14:35:22;3.20;;;1.70;;
44732;SDS011;30460;50.836;4.390;2022-09-29T14:40:31;2.63;;;1.53;;
44732;SDS011;30460;50.836;4.390;2022-09-29T14:51:43;1.97;;;1.70;;
44732;SDS011;30460;50.836;4.390;2022-09-29T14:54:31;5.87;;;1.70;;
44732;SDS011;30460;50.836;4.390;2022-09-29T15:02:19;3.70;;;1.80;;
44732;SDS011;30460;50.836;4.390;2022-09-29T15:04:46;4.70;;;1.77;;
44732;SDS011;30460;50.836;4.390;2022-09-29T15:07:14;3.70;;;1.70;;
44732;SDS011;30460;50.836;4.390;2022-09-29T15:09:46;2.60;;;1.50;;
44732;SDS011;30460;50.836;4.390;2022-09-29T15:12:13;3.27;;;1.50;;
44732;SDS011;30460;50.836;4.390;2022-09-29T15:14:39;2.40;;;1.60;;
44732;SDS011;30460;50.836;4.390;2022-09-29T15:24:33;2.07;;;1.63;;
44732;SDS011;30460;50.836;4.390;2022-09-29T15:27:02;1.90;;;1.53;;
44732;SDS011;30460;50.836;4.390;2022-09-29T15:29:29;3.03;;;1.63;;
44732;SDS011;30460;50.836;4.390;2022-09-29T15:31:55;2.57;;;2.03;;
44732;SDS011;30460;50.836;4.390;2022-09-29T15:34:22;2.87;;;2.40;;
44732;SDS011;30460;50.836;4.390;2022-09-29T15:36:50;4.80;;;2.70;;
44732;SDS011;30460;50.836;4.390;2022-09-29T15:42:34;2.90;;;1.43;;
44732;SDS011;30460;50.836;4.390;2022-09-29T15:45:07;2.40;;;1.90;;
44732;SDS011;30460;50.836;4.390;2022-09-29T15:47:38;3.63;;;2.87;;
44732;SDS011;30460;50.836;4.390;2022-09-29T15:50:21;4.00;;;2.77;;
44732;SDS011;30460;50.836;4.390;2022-09-29T15:52:47;2.60;;;1.60;;
44732;SDS011;30460;50.836;4.390;2022-09-29T15:55:15;2.10;;;1.80;;
44732;SDS011;30460;50.836;4.390;2022-09-29T15:57:43;2.87;;;2.10;;
44732;SDS011;30460;50.836;4.390;2022-09-29T16:05:33;3.17;;;1.93;;
44732;SDS011;30460;50.836;4.390;2022-09-29T16:10:42;6.17;;;3.20;;
44732;SDS011;30460;50.836;4.390;2022-09-29T16:13:16;2.10;;;1.90;;
44732;SDS011;30460;50.836;4.390;2022-09-29T16:15:49;8.00;;;3.07;;
44732;SDS011;30460;50.836;4.390;2022-09-29T16:18:18;3.40;;;2.00;;
44732;SDS011;30460;50.836;4.390;2022-09-29T16:20:45;2.60;;;2.17;;
44732;SDS011;30460;50.836;4.390;2022-09-29T16:23:20;2.80;;;2.07;;
44732;SDS011;30460;50.836;4.390;2022-09-29T16:25:59;6.30;;;3.30;;
44732;SDS011;30460;50.836;4.390;2022-09-29T16:28:33;2.00;;;1.63;;
44732;SDS011;30460;50.836;4.390;2022-09-29T16:31:16;2.67;;;1.90;;
44732;SDS011;30460;50.836;4.390;2022-09-29T16:33:43;5.00;;;3.10;;
44732;SDS011;30460;50.836;4.390;2022-09-29T16:39:05;4.20;;;2.10;;
44732;SDS011;30460;50.836;4.390;2022-09-29T16:41:36;3.37;;;1.90;;
44732;SDS011;30460;50.836;4.390;2022-09-29T16:46:47;2.53;;;2.23;;
44732;SDS011;30460;50.836;4.390;2022-09-29T16:49:14;4.30;;;2.70;;
44732;SDS011;30460;50.836;4.390;2022-09-29T16:51:44;3.77;;;3.00;;
44732;SDS011;30460;50.836;4.390;2022-09-29T16:54:14;2.20;;;2.00;;
44732;SDS011;30460;50.836;4.390;2022-09-29T16:56:41;3.03;;;2.47;;
44732;SDS011;30460;50.836;4.390;2022-09-29T16:59:10;4.17;;;2.20;;
44732;SDS011;30460;50.836;4.390;2022-09-29T17:01:37;4.40;;;2.50;;
44732;SDS011;30460;50.836;4.390;2022-09-29T17:04:04;2.77;;;2.10;;
44732;SDS011;30460;50.836;4.390;2022-09-29T17:06:30;3.13;;;2.30;;
44732;SDS011;30460;50.836;4.390;2022-09-29T17:08:57;2.93;;;2.37;;
44732;SDS011;30460;50.836;4.390;2022-09-29T17:11:23;3.93;;;2.60;;
44732;SDS011;30460;50.836;4.390;2022-09-29T17:13:49;4.17;;;2.10;;
44732;SDS011;30460;50.836;4.390;2022-09-29T17:16:18;2.67;;;2.20;;
44732;SDS011;30460;50.836;4.390;2022-09-29T17:18:49;2.73;;;2.10;;
44732;SDS011;30460;50.836;4.390;2022-09-29T17:21:20;2.73;;;2.10;;
44732;SDS011;30460;50.836;4.390;2022-09-29T17:23:46;4.17;;;2.20;;
44732;SDS011;30460;50.836;4.390;2022-09-29T17:26:19;2.97;;;2.47;;
44732;SDS011;30460;50.836;4.390;2022-09-29T17:29:04;3.03;;;2.57;;
44732;SDS011;30460;50.836;4.390;2022-09-29T17:31:30;2.30;;;2.10;;
44732;SDS011;30460;50.836;4.390;2022-09-29T17:33:56;3.30;;;2.33;;
44732;SDS011;30460;50.836;4.390;2022-09-29T17:36:22;2.33;;;2.10;;
44732;SDS011;30460;50.836;4.390;2022-09-29T17:38:49;2.90;;;2.17;;
44732;SDS011;30460;50.836;4.390;2022-09-29T17:41:16;2.57;;;2.07;;
44732;SDS011;30460;50.836;4.390;2022-09-29T17:43:42;2.90;;;2.20;;
44732;SDS011;30460;50.836;4.390;2022-09-29T17:46:12;2.77;;;2.33;;
44732;SDS011;30460;50.836;4.390;2022-09-29T17:48:38;2.80;;;2.20;;
44732;SDS011;30460;50.836;4.390;2022-09-29T17:51:08;4.93;;;3.53;;
44732;SDS011;30460;50.836;4.390;2022-09-29T17:53:34;2.23;;;2.03;;
44732;SDS011;30460;50.836;4.390;2022-09-29T17:56:00;3.00;;;2.20;;
44732;SDS011;30460;50.836;4.390;2022-09-29T17:58:27;4.03;;;2.70;;
44732;SDS011;30460;50.836;4.390;2022-09-29T18:00:53;2.40;;;2.20;;
44732;SDS011;30460;50.836;4.390;2022-09-29T18:03:23;2.33;;;2.00;;
44732;SDS011;30460;50.836;4.390;2022-09-29T18:05:50;3.10;;;2.40;;
44732;SDS011;30460;50.836;4.390;2022-09-29T18:08:21;3.63;;;2.63;;
44732;SDS011;30460;50.836;4.390;2022-09-29T18:10:51;4.03;;;2.80;;
44732;SDS011;30460;50.836;4.390;2022-09-29T18:13:19;3.17;;;2.70;;
44732;SDS011;30460;50.836;4.390;2022-09-29T18:15:45;3.73;;;2.83;;
44732;SDS011;30460;50.836;4.390;2022-09-29T18:18:12;4.77;;;2.50;;
44732;SDS011;30460;50.836;4.390;2022-09-29T18:20:42;3.17;;;2.07;;
44732;SDS011;30460;50.836;4.390;2022-09-29T18:23:10;2.87;;;2.40;;
44732;SDS011;30460;50.836;4.390;2022-09-29T18:25:39;2.90;;;2.10;;
44732;SDS011;30460;50.836;4.390;2022-09-29T18:28:05;3.20;;;2.40;;
44732;SDS011;30460;50.836;4.390;2022-09-29T18:30:32;3.00;;;2.30;;
44732;SDS011;30460;50.836;4.390;2022-09-29T18:33:04;2.20;;;2.00;;
44732;SDS011;30460;50.836;4.390;2022-09-29T18:35:31;2.20;;;2.00;;
44732;SDS011;30460;50.836;4.390;2022-09-29T18:38:01;2.27;;;1.90;;
44732;SDS011;30460;50.836;4.390;2022-09-29T18:40:28;2.53;;;2.30;;
44732;SDS011;30460;50.836;4.390;2022-09-29T18:42:55;4.53;;;2.57;;
44732;SDS011;30460;50.836;4.390;2022-09-29T18:45:24;2.30;;;2.00;;
44732;SDS011;30460;50.836;4.390;2022-09-29T18:47:53;2.40;;;2.20;;
44732;SDS011;30460;50.836;4.390;2022-09-29T18:50:23;5.53;;;3.80;;
44732;SDS011;30460;50.836;4.390;2022-09-29T18:52:50;5.17;;;3.20;;
44732;SDS011;30460;50.836;4.390;2022-09-29T18:55:17;3.63;;;3.07;;
44732;SDS011;30460;50.836;4.390;2022-09-29T18:57:44;2.70;;;2.23;;
44732;SDS011;30460;50.836;4.390;2022-09-29T19:00:14;2.33;;;2.13;;
44732;SDS011;30460;50.836;4.390;2022-09-29T19:02:41;2.83;;;2.53;;
44732;SDS011;30460;50.836;4.390;2022-09-29T19:05:08;3.40;;;2.50;;
44732;SDS011;30460;50.836;4.390;2022-09-29T19:07:37;2.93;;;2.43;;
44732;SDS011;30460;50.836;4.390;2022-09-29T19:10:12;3.33;;;2.33;;
44732;SDS011;30460;50.836;4.390;2022-09-29T19:12:39;6.93;;;3.90;;
44732;SDS011;30460;50.836;4.390;2022-09-29T19:15:10;4.13;;;2.50;;
44732;SDS011;30460;50.836;4.390;2022-09-29T19:17:38;2.77;;;2.30;;
44732;SDS011;30460;50.836;4.390;2022-09-29T19:20:04;3.43;;;2.77;;
44732;SDS011;30460;50.836;4.390;2022-09-29T19:22:38;2.60;;;2.40;;
44732;SDS011;30460;50.836;4.390;2022-09-29T19:25:07;3.93;;;2.50;;
44732;SDS011;30460;50.836;4.390;2022-09-29T19:27:38;3.13;;;2.30;;
44732;SDS011;30460;50.836;4.390;2022-09-29T19:30:04;3.13;;;2.37;;
44732;SDS011;30460;50.836;4.390;2022-09-29T19:32:30;2.90;;;2.30;;
44732;SDS011;30460;50.836;4.390;2022-09-29T19:34:58;3.87;;;2.73;;
44732;SDS011;30460;50.836;4.390;2022-09-29T19:37:24;6.63;;;4.60;;
44732;SDS011;30460;50.836;4.390;2022-09-29T19:39:56;8.23;;;4.90;;
44732;SDS011;30460;50.836;4.390;2022-09-29T19:42:22;2.77;;;2.57;;
44732;SDS011;30460;50.836;4.390;2022-09-29T19:44:48;3.10;;;2.50;;
44732;SDS011;30460;50.836;4.390;2022-09-29T19:47:14;3.03;;;2.73;;
44732;SDS011;30460;50.836;4.390;2022-09-29T19:49:41;2.77;;;2.53;;
44732;SDS011;30460;50.836;4.390;2022-09-29T19:52:07;2.87;;;2.57;;
44732;SDS011;30460;50.836;4.390;2022-09-29T19:54:36;3.87;;;2.90;;
44732;SDS011;30460;50.836;4.390;2022-09-29T19:57:12;4.03;;;3.10;;
44732;SDS011;30460;50.836;4.390;2022-09-29T19:59:40;3.83;;;2.90;;
44732;SDS011;30460;50.836;4.390;2022-09-29T20:02:10;5.00;;;3.63;;
44732;SDS011;30460;50.836;4.390;2022-09-29T20:04:37;3.43;;;2.90;;
44732;SDS011;30460;50.836;4.390;2022-09-29T20:07:03;9.23;;;5.20;;
44732;SDS011;30460;50.836;4.390;2022-09-29T20:09:30;4.73;;;3.70;;
44732;SDS011;30460;50.836;4.390;2022-09-29T20:11:56;3.60;;;3.30;;
44732;SDS011;30460;50.836;4.390;2022-09-29T20:14:24;7.47;;;5.50;;
44732;SDS011;30460;50.836;4.390;2022-09-29T20:16:52;3.60;;;3.23;;
44732;SDS011;30460;50.836;4.390;2022-09-29T20:19:18;7.60;;;6.30;;
44732;SDS011;30460;50.836;4.390;2022-09-29T20:21:47;5.20;;;3.80;;
